Alamogordo, New Mexico
Current Conditions -  °F | °C
As of 2:15 PM on Thursday 20 Nov 2014 (Local Time) from KALM Reporting Station
Clear Clear  
Wind Chill: 17°   Ceiling: Unl
Heat Index: 17°   Visibility: 10mi
Dew Point: -10°   Wind: 3mph
Humidity: 15%   Direction: 180°S
Pressure: 30.03"   Gusts: NA
Location:  32.9°N, 105.96°W
Report Text: KALM 202115Z AUTO 18003KT 10SM CLR 17/M10 A3003 RMK AO2
Loading
Personal Weather Stations






























Interactive Weather Map New forecast layout! Learn more

10-Day Weather Forecast

Advertisements
Track Severe Weather on mobile